Weather reports worldwide

Advertisment
Berlin/Tempelhof, Germany (10384): temperature & dewpoint: 25.05.2020 00:00:00 - 31.05.2020 00:00:00 (CEST)Berlin/Tempelhof, Germany (10384): temperature 5cm & temperature -5cm: 25.05.2020 00:00:00 - 31.05.2020 00:00:00 (CEST)Berlin/Tempelhof, Germany (10384): temperature -20cm & temperature -100cm: 25.05.2020 00:00:00 - 31.05.2020 00:00:00 (CEST)Berlin/Tempelhof, Germany (10384): wind speed & gusts: 25.05.2020 00:00:00 - 31.05.2020 00:00:00 (CEST)Berlin/Tempelhof, Germany (10384): wind direction: 25.05.2020 00:00:00 - 31.05.2020 00:00:00 (CEST)Berlin/Tempelhof, Germany (10384): reduced air pressure: 25.05.2020 00:00:00 - 31.05.2020 00:00:00 (CEST)Berlin/Tempelhof, Germany (10384): sunshine duration: 25.05.2020 00:00:00 - 31.05.2020 00:00:00 (CEST)Berlin/Tempelhof, Germany (10384): precipitation: 25.05.2020 00:00:00 - 31.05.2020 00:00:00 (CEST)
Date & Time tt [°C] td [°C] tt 5cm [°C] tt -5cm [°C] tt -20cm [°C] tt -100cm [°C] ff [km/h] ff [kn] fx [km/h] fx [kn] dd ppp [hPa] sd [min] rr [mm]
31.05.2020 00:00:00 11,8 5,9 10,0 16,1 16,8 12,5 17 9 26 14 NNE 1023,2 0 0,0
30.05.2020 23:00:00 12,5 5,5 10,5 17,0 17,0 12,5 17 9 31 17 NNE 1023,1 0 0,0
30.05.2020 22:00:00 13,4 5,6 11,4 18,0 17,2 12,5 18 10 32 18 NNE 1022,9 0 0,0
30.05.2020 21:00:00 14,7 4,6 12,7 19,3 17,4 12,6 15 8 28 15 NNE 1022,4 3 0,0
30.05.2020 20:00:00 15,9 3,7 15,0 20,7 17,4 12,5 14 8 30 16 N 1022,3 44 0,0
30.05.2020 19:00:00 16,4 2,4 16,9 22,5 17,2 12,5 19 10 36 20 NNE 1022,4 47 0,0
30.05.2020 18:00:00 17,0 3,5 19,7 23,4 16,9 12,5 25 13 43 23 NNE 1022,6 46 0,0
30.05.2020 17:00:00 18,0 3,5 23,4 23,7 16,5 12,5 24 13 35 19 N 1022,5 57 0,0
30.05.2020 16:00:00 17,7 3,2 23,0 21,8 16,2 12,5 21 11 38 20 N 1022,8 53 0,0
30.05.2020 15:00:00 17,2 3,5 22,2 19,9 16,0 12,5 26 14 43 23 NNE 1023,4 12 0,0
30.05.2020 14:00:00 16,7 3,4 18,0 20,3 15,7 12,5 29 16 46 25 N 1023,9 1 0,0
30.05.2020 13:00:00 17,1 3,9 19,7 20,1 15,3 12,5 25 13 42 23 NNE 1024,2 17 0,0
30.05.2020 12:00:00 16,2 3,3 18,0 19,1 14,9 12,5 25 13 46 25 NNE 1024,8 36 0,0
30.05.2020 11:00:00 16,5 2,5 21,2 17,2 14,7 12,5 29 15 43 23 NE 1025,0 57 0,0
30.05.2020 10:00:00 15,6 4,9 20,2 15,0 14,6 12,5 16 9 32 17 NE 1025,2 59 0,0
30.05.2020 09:00:00 13,7 3,9 15,9 13,8 14,6 12,5 14 8 25 14 NNE 1025,8 32 0,0
30.05.2020 08:00:00 12,3 4,8 13,4 12,9 14,7 12,5 13 7 21 11 NNE 1026,1 28 0,0
30.05.2020 07:00:00 11,3 5,1 11,2 12,3 14,9 12,5 6 3 16 8 NNE 1026,2 60 0,0
30.05.2020 06:00:00 8,9 4,3 7,0 12,3 15,2 12,5 11 6 16 9 NNE 1026,4 13 0,0
30.05.2020 05:00:00 7,9 3,1 2,5 12,7 15,5 12,5 10 5 17 9 NNE 1026,7 0 0,0
30.05.2020 04:00:00 9,2 3,1 6,0 13,2 15,8 12,5 13 7 23 12 NE 1026,5 0 0,0
30.05.2020 03:00:00 9,7 3,8 6,4 13,7 16,1 12,5 13 7 21 11 NE 1026,5 0 0,0
30.05.2020 02:00:00 9,6 5,1 4,1 14,4 16,4 12,5 11 6 20 11 NNE 1026,4 0 0,0
30.05.2020 01:00:00 11,0 5,7 7,6 15,2 16,7 12,5 13 7 20 11 NNE 1026,3 0 0,0
30.05.2020 00:00:00 12,2 5,9 8,7 15,9 16,9 12,5 13 7 22 12 NNE 1026,3 0 0,0
29.05.2020 23:00:00 13,7 5,6 11,3 16,7 17,2 12,5 19 10 31 17 NNE 1026,2 0 0,0
29.05.2020 22:00:00 14,6 5,7 11,5 17,6 17,5 12,5 15 8 24 13 NE 1026,3 0 0,0
29.05.2020 21:00:00 15,5 6,8 11,8 18,7 17,7 12,5 10 5 18 10 NNE 1025,9 23 0,0
29.05.2020 20:00:00 16,6 5,8 15,0 19,7 17,8 12,4 16 9 23 13 NNE 1026,1 0 0,0
29.05.2020 19:00:00 17,3 5,6 16,7 20,8 17,9 12,4 16 9 27 15 N 1026,5 0 0,0
29.05.2020 18:00:00 18,0 4,5 17,5 22,2 17,9 12,4 18 10 34 18 NNE 1026,5 3 0,0
29.05.2020 17:00:00 19,6 3,9 24,7 23,6 17,6 12,4 12 7 27 15 N 1026,7 11 0,0
29.05.2020 16:00:00 19,8 4,2 23,9 25,5 17,1 12,4 14 7 29 16 NNW 1027,1 27 0,0
29.05.2020 15:00:00 20,7 3,7 28,7 25,6 16,4 12,4 14 7 32 17 ENE 1027,7 54 0,0
29.05.2020 14:00:00 19,1 4,1 22,9 23,3 15,9 12,4 19 11 31 17 NNE 1028,7 30 0,0
29.05.2020 13:00:00 18,7 3,7 22,2 21,9 15,3 12,4 17 9 29 16 NNE 1029,2 26 0,0
29.05.2020 12:00:00 18,5 2,0 23,7 19,9 14,8 12,4 13 7 22 12 NE 1029,7 57 0,0
29.05.2020 11:00:00 17,5 1,9 22,3 17,1 14,5 12,4 12 7 25 14 NE 1030,1 60 0,0
29.05.2020 10:00:00 16,3 2,1 20,5 14,6 14,3 12,4 9 5 18 10 NNE 1030,2 60 0,0
29.05.2020 09:00:00 14,6 3,4 17,5 13,0 14,4 12,4 10 6 17 9 E 1030,6 60 0,0
29.05.2020 08:00:00 12,9 4,8 13,2 12,3 14,6 12,4 11 6 18 10 E 1030,8 60 0,0
29.05.2020 07:00:00 10,8 5,2 9,5 12,0 14,8 12,4 10 5 16 8 ENE 1030,8 60 0,0
29.05.2020 06:00:00 8,4 5,3 4,3 12,1 15,1 12,4 9 5 13 7 NE 1030,6 11 0,0
29.05.2020 05:00:00 8,1 5,0 4,5 12,7 15,4 12,3 11 6 19 10 NE 1030,4 0 0,0
29.05.2020 04:00:00 8,4 5,2 5,3 13,1 15,7 12,3 12 6 19 10 NE 1030,5 0 0,0
29.05.2020 03:00:00 9,0 5,2 6,1 13,7 16,0 12,3 13 7 20 11 NE 1030,2 0 0,0
29.05.2020 02:00:00 9,1 5,3 5,7 14,3 16,4 12,3 10 6 18 10 NNE 1030,2 0 0,0
29.05.2020 01:00:00 10,0 5,5 6,4 15,0 16,7 12,3 11 6 21 12 NNE 1030,3 0 0,0
29.05.2020 00:00:00 10,8 5,6 7,6 15,8 17,1 12,3 14 7 23 12 NNE 1030,0 0 0,0
28.05.2020 23:00:00 12,4 5,5 9,7 16,8 17,4 12,3 16 9 28 15 NNE 1029,8 0 0,0
28.05.2020 22:00:00 13,6 5,3 10,4 17,9 17,7 12,3 15 8 28 15 NNE 1029,6 0 0,0
28.05.2020 21:00:00 15,1 6,1 12,7 19,2 17,9 12,3 16 9 34 18 NNE 1028,9 45 0,0
28.05.2020 20:00:00 16,8 6,5 15,5 20,7 18,0 12,3 21 11 35 19 NNE 1028,5 59 0,0
28.05.2020 19:00:00 18,1 4,7 19,8 22,4 17,9 12,3 23 13 37 20 NNE 1028,3 58 0,0
28.05.2020 18:00:00 19,1 4,6 21,7 23,5 17,6 12,3 21 11 45 24 NNE 1028,0 47 0,0
28.05.2020 17:00:00 19,4 4,8 23,2 23,7 17,2 12,3 26 14 41 22 NNE 1028,1 35 0,0
28.05.2020 16:00:00 19,6 6,0 23,0 23,8 16,8 12,3 15 8 41 22 NNE 1028,2 41 0,0
28.05.2020 15:00:00 17,9 5,6 19,5 22,6 16,3 12,3 22 12 40 22 NNE 1028,8 29 0,0
28.05.2020 14:00:00 18,2 6,2 21,2 21,2 15,9 12,3 20 11 37 20 N 1029,2 29 0,0
28.05.2020 13:00:00 18,1 6,9 24,5 19,2 15,6 12,3 18 10 39 21 N 1029,4 20 0,0
28.05.2020 12:00:00 16,2 4,8 17,4 18,6 15,3 12,2 21 11 36 20 N 1029,7 33 0,0
28.05.2020 11:00:00 15,6 4,8 17,0 17,0 15,1 12,2 21 12 37 20 NNW 1029,8 56 0,0
28.05.2020 10:00:00 15,2 5,2 18,0 15,2 15,1 12,2 18 10 31 17 NNW 1030,0 53 0,0
28.05.2020 09:00:00 13,0 7,6 13,9 14,4 15,1 12,2 16 9 26 14 NW 1030,3 36 0,0
28.05.2020 08:00:00 12,3 7,6 12,2 14,1 15,3 12,2 17 9 26 14 NNW 1030,3 14 0,0
28.05.2020 07:00:00 12,0 7,8 11,5 14,0 15,5 12,2 13 7 26 14 NNW 1030,2 0 0,0
28.05.2020 06:00:00 12,0 7,2 10,8 14,1 15,7 12,2 14 8 26 14 NNW 1030,3 0 0,0
28.05.2020 05:00:00 12,1 6,8 10,3 14,5 16,0 12,2 16 9 24 13 NNW 1030,1 0 0,0
28.05.2020 04:00:00 12,5 6,8 10,0 15,2 16,3 12,2 11 6 21 11 N 1029,8 0 0,0
28.05.2020 03:00:00 13,4 7,3 11,6 15,7 16,5 12,2 14 8 32 17 NNE 1029,3 0 0,0
28.05.2020 02:00:00 14,1 8,5 12,0 16,2 16,8 12,2 22 12 37 20 NNE 1030,0 0 0,0
28.05.2020 01:00:00 14,5 8,5 12,2 16,8 17,0 12,2 26 14 37 20 N 1030,2 0 0,0
28.05.2020 00:00:00 14,5 10,3 12,2 17,5 17,3 12,2 16 9 35 19 N 1029,8 0 1,1
27.05.2020 23:00:00 17,3 9,6 16,6 18,3 17,5 12,2 21 11 34 18 N 1029,5 0 0,0
27.05.2020 22:00:00 18,5 8,8 17,5 18,9 17,7 12,2 19 10 27 15 NNW 1029,0 0 0,0
27.05.2020 21:00:00 19,2 7,2 18,0 19,8 17,8 12,2 18 10 32 17 NNW 1028,4 0 0,0
27.05.2020 20:00:00 20,0 6,9 19,0 21,0 17,9 12,2 17 9 34 19 NW 1028,5 4 0,0
27.05.2020 19:00:00 21,3 6,3 22,0 22,2 17,8 12,2 16 9 30 16 NW 1028,6 38 0,0
27.05.2020 18:00:00 21,8 8,5 24,0 23,2 17,6 12,2 16 8 31 17 NNW 1029,1 38 0,0
27.05.2020 17:00:00 21,0 7,2 21,5 23,5 17,3 12,1 14 8 29 16 NW 1029,6 15 0,0
27.05.2020 16:00:00 22,0 7,9 26,7 24,1 16,8 12,1 12 7 45 24 N 1030,1 26 0,0
27.05.2020 15:00:00 22,1 7,5 28,8 24,0 16,2 12,1 13 7 25 13 WNW 1030,7 40 0,0
27.05.2020 14:00:00 20,1 6,7 22,7 23,6 15,4 12,1 11 6 24 13 NW 1031,3 46 0,0
27.05.2020 13:00:00 20,1 6,2 21,7 21,3 14,8 12,1 10 5 21 12 NW 1032,0 42 0,0
27.05.2020 12:00:00 20,2 5,5 24,9 19,3 14,2 12,1 8 5 17 9 NW 1032,6 60 0,0
27.05.2020 11:00:00 19,2 5,5 22,8 16,8 13,8 12,1 9 5 18 10 N 1033,1 60 0,0
27.05.2020 10:00:00 17,9 3,7 22,0 14,2 13,6 12,1 5 3 9 5 NE 1033,4 60 0,0
27.05.2020 09:00:00 16,8 5,8 17,7 12,5 13,6 12,1 2 1 6 3 NW 1033,7 60 0,0
27.05.2020 08:00:00 14,2 8,5 14,0 11,6 13,7 12,1 2 1 4 2 NE 1034,0 60 0,0
27.05.2020 07:00:00 10,5 9,0 9,4 11,1 14,0 12,1 0 0 1 1 N 1034,0 56 0,0
27.05.2020 06:00:00 7,5 5,9 2,9 11,1 14,3 12,1 0 0 4 2 N 1034,0 4 0,0
27.05.2020 05:00:00 7,6 5,9 0,3 11,5 14,7 12,1 0 0 3 2 N 1034,1 0 0,0
27.05.2020 04:00:00 8,1 5,8 1,0 12,1 15,1 12,1 2 1 3 1 SW 1034,1 0 0,0
27.05.2020 03:00:00 8,5 5,6 0,9 12,8 15,5 12,1 2 1 3 1 W 1034,5 0 0,0
27.05.2020 02:00:00 9,8 5,7 1,3 13,6 15,9 12,1 0 0 4 2 N 1034,6 0 0,0
27.05.2020 01:00:00 10,7 6,1 1,9 14,5 16,3 12,1 2 1 6 3 NE 1034,6 0 0,0
27.05.2020 00:00:00 12,1 5,7 3,0 15,6 16,7 12,1 6 3 14 7 ENE 1034,6 0 0,0
26.05.2020 23:00:00 13,3 6,5 8,2 16,7 17,1 12,1 12 7 18 10 NE 1034,6 0 0,0
26.05.2020 22:00:00 14,3 5,6 5,8 18,0 17,4 12,1 6 4 17 9 ENE 1034,2 0 0,0
26.05.2020 21:00:00 16,4 5,6 11,0 19,5 17,6 12,1 12 6 21 11 NE 1033,8 41 0,0
26.05.2020 20:00:00 18,4 5,3 17,0 21,1 17,7 12,1 17 9 25 14 NE 1033,5 57 0,0
26.05.2020 19:00:00 19,0 5,5 19,4 22,9 17,6 12,1 18 10 30 16 ENE 1033,4 52 0,0
26.05.2020 18:00:00 20,1 4,3 23,2 24,0 17,3 12,1 10 5 34 18 N 1033,4 47 0,0
26.05.2020 17:00:00 19,1 4,9 20,2 24,9 16,8 12,1 18 10 34 18 NE 1033,5 50 0,0
26.05.2020 16:00:00 19,3 6,2 22,5 25,3 16,2 12,1 16 9 27 15 NNE 1033,8 50 0,0
26.05.2020 15:00:00 18,7 6,8 21,5 24,8 15,4 12,1 17 9 24 13 NE 1033,9 43 0,0
26.05.2020 14:00:00 19,2 7,0 26,6 23,6 14,6 12,1 14 8 26 14 NNE 1034,1 53 0,0
26.05.2020 13:00:00 18,2 7,3 25,0 21,6 13,8 12,1 13 7 27 15 ENE 1034,4 59 0,0
26.05.2020 12:00:00 17,3 6,9 23,7 18,7 13,1 12,1 13 7 23 12 NE 1034,6 58 0,0
26.05.2020 11:00:00 16,7 9,0 21,7 15,8 12,7 12,1 11 6 22 12 NE 1034,6 57 0,0
26.05.2020 10:00:00 15,2 9,2 19,0 13,3 12,4 12,1 13 7 19 11 NNE 1034,9 58 0,0
26.05.2020 09:00:00 14,1 9,9 16,0 11,5 12,3 12,1 12 6 18 10 N 1034,6 60 0,0
26.05.2020 08:00:00 12,2 9,7 11,6 10,6 12,4 12,1 11 6 14 8 NW 1034,3 60 0,0
26.05.2020 07:00:00 10,5 9,3 9,9 10,1 12,6 12,1 7 4 14 8 NNW 1034,0 60 0,0
26.05.2020 06:00:00 8,9 8,5 8,1 9,8 12,8 12,1 8 4 15 8 NW 1033,7 3 0,0
26.05.2020 05:00:00 8,1 7,6 0,8 10,1 13,1 12,1 7 4 9 5 WNW 1033,0 0 0,0
26.05.2020 04:00:00 8,2 7,3 0,6 10,7 13,3 12,1 5 3 6 4 NW 1032,8 0 0,0
26.05.2020 03:00:00 8,6 7,5 1,5 11,4 13,6 12,1 4 2 13 7 NW 1032,6 0 0,0
26.05.2020 02:00:00 9,6 8,2 4,7 12,1 13,8 12,1 10 5 14 8 NNW 1032,8 0 0,0
26.05.2020 01:00:00 10,7 8,7 8,0 12,8 13,9 12,1 11 6 19 10 NNW 1032,3 0 0,0
26.05.2020 00:00:00 12,5 9,1 11,6 13,2 14,0 12,1 14 7 20 11 NW 1032,0 0 0,0
25.05.2020 23:00:00 12,3 9,4 11,3 13,4 14,1 12,1 8 4 13 7 NW 1031,7 0 0,0
25.05.2020 22:00:00 11,7 8,9 9,0 13,7 14,2 12,1 8 5 17 9 NW 1031,6 0 0,0
25.05.2020 21:00:00 13,0 9,1 12,0 14,2 14,3 12,1 13 7 19 11 NW 1030,8 0 0,0
25.05.2020 20:00:00 13,1 9,3 12,7 14,6 14,4 12,1 14 7 28 15 NW 1030,2 0 0,0
25.05.2020 19:00:00 13,4 9,3 13,2 15,0 14,4 12,1 16 8 23 13 NW 1029,8 0 0,0
25.05.2020 18:00:00 13,4 9,5 14,4 15,2 14,3 12,1 14 8 30 16 NNW 1029,6 0 0,0
25.05.2020 17:00:00 13,0 9,2 13,5 15,0 14,3 12,1 18 10 31 17 NW 1029,2 0 0,0
25.05.2020 16:00:00 12,5 9,3 12,7 15,3 14,3 12,1 18 10 35 19 NNW 1029,0 0 0,0
25.05.2020 15:00:00 12,2 9,3 11,7 15,6 14,2 12,1 26 14 35 19 NW 1028,5 0 0,1
25.05.2020 14:00:00 11,8 9,6 11,2 15,8 14,0 12,1 21 12 34 18 NW 1027,9 0 0,6
25.05.2020 13:00:00 12,1 9,7 12,7 15,5 13,9 12,1 25 13 37 20 NW 1027,5 5 0,2
25.05.2020 12:00:00 12,8 8,3 14,7 15,0 13,7 12,1 26 14 40 22 NW 1027,0 0 0,0
25.05.2020 11:00:00 12,8 8,0 14,5 14,4 13,6 12,1 28 15 46 25 WNW 1026,6 0 0,0
25.05.2020 10:00:00 12,4 7,9 13,2 13,7 13,5 12,1 30 16 46 25 WNW 1026,3 17 0,0
25.05.2020 09:00:00 11,9 8,9 11,9 13,0 13,5 12,1 23 13 39 21 WNW 1025,9 0 0,0
25.05.2020 08:00:00 11,3 9,0 10,9 12,6 13,6 12,1 23 12 34 18 WNW 1025,5 2 0,0
25.05.2020 07:00:00 10,9 9,7 10,4 12,3 13,6 12,1 15 8 25 14 WNW 1025,2 0 0,9
25.05.2020 06:00:00 10,7 9,3 10,0 12,3 13,8 12,1 14 8 28 15 WNW 1025,0 0 0,1
25.05.2020 05:00:00 10,9 8,8 10,2 12,3 13,9 12,1 15 8 24 13 W 1024,6 0 0,0
25.05.2020 04:00:00 10,7 8,7 9,7 12,4 14,0 12,1 15 8 29 16 W 1024,5 0 0,0
25.05.2020 03:00:00 10,9 9,1 10,0 12,5 14,2 12,1 18 10 27 15 W 1024,5 0 0,0
25.05.2020 02:00:00 10,7 8,9 9,6 12,6 14,4 12,1 16 9 26 14 W 1024,5 0 0,0
25.05.2020 01:00:00 11,0 9,9 9,4 13,0 14,6 12,1 15 8 27 15 W 1024,5 0 0,0
25.05.2020 00:00:00 11,3 10,3 9,9 13,4 14,8 12,1 13 7 20 11 WSW 1024,4 0 0,0

tt = temperature
td = dewpoint
tt 5cm = temperature 5cm
tt -5cm = temperature -5cm
tt -20cm = temperature -20cm
tt -100cm = temperature -100cm
ff = wind speed
fx = gusts
dd = wind direction
ppp = reduced air pressure
sd = sunshine duration
rr = precipitation

Next stations